createdAt,value
2019-02-17T00:01:25.218Z,101219.27
2019-02-17T00:03:53.565Z,101219.27
2019-02-17T00:06:21.876Z,101214.69
2019-02-17T00:08:50.223Z,101213.20
2019-02-17T00:11:18.565Z,101210.94
2019-02-17T00:13:46.929Z,101212.05
2019-02-17T00:16:15.380Z,101206.98
2019-02-17T00:18:43.701Z,101212.52
2019-02-17T00:21:12.503Z,101211.71
2019-02-17T00:23:41.352Z,101207.74
2019-02-17T00:26:09.786Z,101204.97
2019-02-17T00:28:38.169Z,101208.32
2019-02-17T00:31:06.527Z,101213.86
2019-02-17T00:33:34.972Z,101213.16
2019-02-17T00:36:03.350Z,101215.91
2019-02-17T00:38:31.818Z,101207.98
2019-02-17T00:41:00.101Z,101202.30
2019-02-17T00:43:28.646Z,101203.27
2019-02-17T00:45:57.165Z,101206.99
2019-02-17T00:48:25.469Z,101210.73
2019-02-17T00:50:53.835Z,101212.79
2019-02-17T00:53:22.155Z,101219.29
2019-02-17T00:55:50.521Z,101216.14
2019-02-17T00:58:19.522Z,101214.33
2019-02-17T01:00:47.957Z,101213.37
2019-02-17T01:03:16.273Z,101212.02
2019-02-17T01:05:44.820Z,101217.09
2019-02-17T01:08:13.414Z,101211.94
2019-02-17T01:10:42.613Z,101211.66
2019-02-17T01:13:11.443Z,101213.84
2019-02-17T01:15:39.784Z,101212.87
2019-02-17T01:18:08.111Z,101211.44
2019-02-17T01:20:36.519Z,101213.35
2019-02-17T01:23:04.835Z,101214.30
2019-02-17T01:25:33.198Z,101216.46
2019-02-17T01:28:01.554Z,101214.42
2019-02-17T01:30:29.930Z,101215.14
2019-02-17T01:32:58.662Z,101205.12
2019-02-17T01:35:26.985Z,101212.11
2019-02-17T01:37:55.326Z,101208.88
2019-02-17T01:40:23.685Z,101211.50
2019-02-17T01:42:52.034Z,101214.00
2019-02-17T01:45:20.363Z,101209.94
2019-02-17T01:47:48.829Z,101208.70
2019-02-17T01:50:17.372Z,101209.55
2019-02-17T01:52:45.734Z,101208.14
2019-02-17T01:55:15.034Z,101200.64
2019-02-17T01:57:43.529Z,101200.19
2019-02-17T02:00:13.811Z,101203.53
2019-02-17T02:02:42.179Z,101202.57
2019-02-17T02:05:11.170Z,101207.35
2019-02-17T02:07:39.588Z,101202.73
2019-02-17T02:10:09.334Z,101202.86
2019-02-17T02:12:37.812Z,101205.99
2019-02-17T02:15:07.825Z,101201.17
2019-02-17T02:17:36.193Z,101209.20
2019-02-17T02:20:07.879Z,101203.41
2019-02-17T02:22:36.229Z,101205.70
2019-02-17T02:25:06.408Z,101195.11
2019-02-17T02:27:35.097Z,101194.28
2019-02-17T02:30:04.609Z,101193.67
2019-02-17T02:32:33.028Z,101199.41
2019-02-17T02:35:01.375Z,101197.97
2019-02-17T02:37:29.703Z,101197.77
2019-02-17T02:39:58.048Z,101193.08
2019-02-17T02:42:26.389Z,101189.30
2019-02-17T02:44:54.746Z,101193.27
2019-02-17T02:47:23.086Z,101193.08
2019-02-17T02:49:51.436Z,101191.27
2019-02-17T02:52:19.741Z,101195.32
2019-02-17T02:54:48.126Z,101180.29
2019-02-17T02:57:16.452Z,101183.73
2019-02-17T02:59:52.216Z,101178.00
2019-02-17T03:02:15.149Z,101176.72
2019-02-17T03:04:43.489Z,101180.64
2019-02-17T03:07:12.081Z,101172.46
2019-02-17T03:09:40.426Z,101176.91
2019-02-17T03:12:08.879Z,101176.91
2019-02-17T03:14:37.252Z,101168.81
2019-02-17T03:17:05.602Z,101176.27
2019-02-17T03:19:33.957Z,101177.66
2019-02-17T03:22:02.276Z,101176.89
2019-02-17T03:24:30.614Z,101174.90
2019-02-17T03:26:59.012Z,101181.81
2019-02-17T03:29:27.473Z,101184.14
2019-02-17T03:31:55.818Z,101174.47
2019-02-17T03:34:24.223Z,101179.52
2019-02-17T03:36:53.446Z,101184.08
2019-02-17T03:39:21.827Z,101185.77
2019-02-17T03:41:50.310Z,101188.95
2019-02-17T03:44:18.638Z,101189.86
2019-02-17T03:46:46.970Z,101185.34
2019-02-17T03:49:15.291Z,101189.06
2019-02-17T03:51:43.699Z,101186.91
2019-02-17T03:54:12.645Z,101191.98
2019-02-17T03:56:40.997Z,101193.67
2019-02-17T03:59:09.327Z,101194.12
2019-02-17T04:01:37.687Z,101193.03
2019-02-17T04:04:06.025Z,101192.55
2019-02-17T04:06:34.391Z,101187.70
2019-02-17T04:09:02.804Z,101186.73
2019-02-17T04:11:31.292Z,101183.91
2019-02-17T04:13:59.690Z,101182.13
2019-02-17T04:16:28.119Z,101182.87
2019-02-17T04:18:56.449Z,101182.36
2019-02-17T04:21:24.884Z,101181.02
2019-02-17T04:23:53.235Z,101181.21
2019-02-17T04:26:21.635Z,101184.41
2019-02-17T04:28:50.786Z,101183.74
2019-02-17T04:31:19.219Z,101175.67
2019-02-17T04:33:47.663Z,101177.42
2019-02-17T04:36:15.974Z,101180.30
2019-02-17T04:38:44.527Z,101177.88
2019-02-17T04:41:13.125Z,101184.27
2019-02-17T04:43:41.455Z,101186.41
2019-02-17T04:46:10.199Z,101183.90
2019-02-17T04:48:38.575Z,101175.55
2019-02-17T04:51:06.969Z,101177.11
2019-02-17T04:53:35.349Z,101166.48
2019-02-17T04:56:03.680Z,101169.50
2019-02-17T04:58:32.100Z,101167.70
2019-02-17T05:01:00.473Z,101169.13
2019-02-17T05:03:30.037Z,101168.52
2019-02-17T05:05:58.397Z,101167.56
2019-02-17T05:08:26.744Z,101174.17
2019-02-17T05:10:55.083Z,101170.20
2019-02-17T05:13:23.788Z,101169.80
2019-02-17T05:15:52.139Z,101165.96
2019-02-17T05:18:20.462Z,101168.45
2019-02-17T05:20:48.817Z,101168.54
2019-02-17T05:23:17.138Z,101175.06
2019-02-17T05:25:45.527Z,101176.27
2019-02-17T05:28:14.058Z,101176.63
2019-02-17T05:30:52.339Z,101170.32
2019-02-17T05:33:13.135Z,101165.30
2019-02-17T05:35:41.465Z,101159.35
2019-02-17T05:38:09.927Z,101165.17
2019-02-17T05:40:38.250Z,101168.38
2019-02-17T05:43:06.587Z,101169.09
2019-02-17T05:45:34.942Z,101176.43
2019-02-17T05:48:03.427Z,101166.51
2019-02-17T05:50:31.791Z,101167.77
2019-02-17T05:53:00.158Z,101163.22
2019-02-17T05:55:28.507Z,101167.56
2019-02-17T05:57:56.839Z,101158.20
2019-02-17T06:00:26.097Z,101165.12
2019-02-17T06:02:54.451Z,101161.25
2019-02-17T06:05:22.808Z,101171.95
2019-02-17T06:07:51.155Z,101170.50
2019-02-17T06:10:19.546Z,101172.16
2019-02-17T06:12:48.328Z,101175.28
2019-02-17T06:15:16.698Z,101175.23
2019-02-17T06:17:45.015Z,101173.58
2019-02-17T06:20:13.800Z,101169.86
2019-02-17T06:22:42.141Z,101180.07
2019-02-17T06:25:11.180Z,101175.67
2019-02-17T06:27:39.521Z,101175.98
2019-02-17T06:30:09.391Z,101184.23
2019-02-17T06:32:37.725Z,101184.27
2019-02-17T06:35:06.863Z,101180.19
2019-02-17T06:37:35.190Z,101186.06
2019-02-17T06:40:04.882Z,101194.05
2019-02-17T06:42:33.264Z,101195.97
2019-02-17T06:45:01.664Z,101191.86
2019-02-17T06:47:31.024Z,101197.03
2019-02-17T06:49:59.326Z,101197.92
2019-02-17T06:52:27.705Z,101192.39
2019-02-17T06:55:03.241Z,101186.27
2019-02-17T06:57:33.579Z,101183.98
2019-02-17T07:00:05.519Z,101185.30
2019-02-17T07:02:33.882Z,101190.13
2019-02-17T07:05:06.068Z,101195.48
2019-02-17T07:07:34.485Z,101192.22
2019-02-17T07:10:04.474Z,101189.22
2019-02-17T07:12:32.813Z,101185.90
2019-02-17T07:15:01.166Z,101187.03
2019-02-17T07:17:29.533Z,101178.46
2019-02-17T07:19:57.882Z,101185.32
2019-02-17T07:22:26.227Z,101186.45
2019-02-17T07:24:54.593Z,101190.48
2019-02-17T07:27:22.991Z,101180.55
2019-02-17T07:29:51.321Z,101183.13
2019-02-17T07:32:19.680Z,101187.61
2019-02-17T07:34:48.026Z,101187.19
2019-02-17T07:37:16.367Z,101190.20
2019-02-17T07:39:44.716Z,101187.06
2019-02-17T07:42:13.110Z,101184.95
2019-02-17T07:44:41.519Z,101190.00
2019-02-17T07:47:09.896Z,101185.75
2019-02-17T07:49:38.229Z,101189.53
2019-02-17T07:52:06.796Z,101192.05
2019-02-17T07:54:35.118Z,101190.77
2019-02-17T07:57:03.505Z,101191.89
2019-02-17T07:59:31.892Z,101190.38
2019-02-17T08:02:00.285Z,101190.36
2019-02-17T08:04:28.596Z,101190.81
2019-02-17T08:06:56.974Z,101189.02
2019-02-17T08:09:25.305Z,101195.84
2019-02-17T08:11:53.697Z,101194.64
2019-02-17T08:14:22.044Z,101193.50
2019-02-17T08:16:50.413Z,101196.28
2019-02-17T08:19:18.741Z,101192.27
2019-02-17T08:21:47.114Z,101188.38
2019-02-17T08:24:15.466Z,101186.11
2019-02-17T08:26:43.829Z,101189.11
2019-02-17T08:29:12.186Z,101192.20
2019-02-17T08:31:40.565Z,101191.90
2019-02-17T08:34:09.173Z,101192.50
2019-02-17T08:36:37.552Z,101191.31
2019-02-17T08:39:06.432Z,101195.53
2019-02-17T08:41:34.764Z,101189.95
2019-02-17T08:44:03.061Z,101190.85
2019-02-17T08:46:31.437Z,101187.15
2019-02-17T08:48:59.811Z,101189.65
2019-02-17T08:51:28.162Z,101186.74
2019-02-17T08:53:56.487Z,101189.59
2019-02-17T08:56:24.984Z,101188.28
2019-02-17T08:58:53.274Z,101186.91
2019-02-17T09:01:21.649Z,101182.14
2019-02-17T09:03:49.983Z,101184.23
2019-02-17T09:06:18.340Z,101190.79
2019-02-17T09:08:46.695Z,101183.79
2019-02-17T09:11:15.345Z,101183.81
2019-02-17T09:13:43.720Z,101184.70
2019-02-17T09:16:12.057Z,101177.03
2019-02-17T09:18:41.022Z,101182.11
2019-02-17T09:21:09.455Z,101175.65
2019-02-17T09:23:37.809Z,101183.69
2019-02-17T09:26:06.173Z,101170.59
2019-02-17T09:28:34.550Z,101176.55
2019-02-17T09:31:03.109Z,101173.36
2019-02-17T09:33:31.486Z,101169.76
2019-02-17T09:35:59.877Z,101164.45
2019-02-17T09:38:28.230Z,101168.36
2019-02-17T09:40:56.561Z,101158.63
2019-02-17T09:43:24.901Z,101164.44
2019-02-17T09:45:53.450Z,101163.15
2019-02-17T09:48:21.809Z,101155.68
2019-02-17T09:50:50.201Z,101154.14
2019-02-17T09:53:18.526Z,101161.00
2019-02-17T09:55:46.992Z,101154.32
2019-02-17T09:58:15.444Z,101145.73
2019-02-17T10:00:43.798Z,101147.98
2019-02-17T10:03:12.320Z,101151.98
2019-02-17T10:05:40.722Z,101149.27
2019-02-17T10:08:09.462Z,101146.83
2019-02-17T10:10:37.791Z,101144.26
2019-02-17T10:13:06.326Z,101145.86
2019-02-17T10:15:34.713Z,101144.05
2019-02-17T10:18:03.090Z,101140.88
2019-02-17T10:20:31.432Z,101140.95
2019-02-17T10:22:59.808Z,101140.76
2019-02-17T10:25:28.134Z,101138.81
2019-02-17T10:27:56.476Z,101140.80
2019-02-17T10:30:24.806Z,101136.21
2019-02-17T10:32:53.207Z,101139.94
2019-02-17T10:35:21.526Z,101136.16
2019-02-17T10:37:49.950Z,101142.39
2019-02-17T10:40:19.325Z,101137.07
2019-02-17T10:42:48.077Z,101132.56
2019-02-17T10:45:16.497Z,101134.22
2019-02-17T10:47:44.852Z,101129.58
2019-02-17T10:50:13.501Z,101129.39
2019-02-17T10:52:42.076Z,101126.02
2019-02-17T10:55:12.245Z,101122.50
2019-02-17T10:57:40.662Z,101119.08
2019-02-17T11:00:14.730Z,101117.31
2019-02-17T11:02:47.274Z,101114.44
2019-02-17T11:05:13.655Z,101110.67
2019-02-17T11:07:42.176Z,101104.28
2019-02-17T11:10:11.610Z,101098.00
2019-02-17T11:12:40.020Z,101090.09
2019-02-17T11:15:14.685Z,101082.25
2019-02-17T11:17:43.022Z,101081.08
2019-02-17T11:20:11.646Z,101075.05
2019-02-17T11:22:40.097Z,101070.70
2019-02-17T11:25:09.573Z,101066.87
2019-02-17T11:27:37.912Z,101062.50
2019-02-17T11:30:11.242Z,101055.42
2019-02-17T11:32:39.598Z,101054.21
2019-02-17T11:35:08.810Z,101052.50
2019-02-17T11:37:37.128Z,101054.22
2019-02-17T11:40:07.958Z,101046.47
2019-02-17T11:42:36.349Z,101046.20
2019-02-17T11:45:08.932Z,101043.11
2019-02-17T11:47:37.256Z,101040.34
2019-02-17T11:50:07.805Z,101032.86
2019-02-17T11:52:36.203Z,101030.67
2019-02-17T11:55:07.481Z,101025.34
2019-02-17T11:57:35.817Z,101021.09
2019-02-17T12:00:09.685Z,101017.68
2019-02-17T12:02:38.012Z,101017.64
2019-02-17T12:05:08.668Z,101013.24
2019-02-17T12:07:36.987Z,101001.70
2019-02-17T12:10:08.757Z,101002.87
2019-02-17T12:12:37.146Z,100997.28
2019-02-17T12:15:08.999Z,100990.13
2019-02-17T12:17:37.322Z,100989.01
2019-02-17T12:20:16.868Z,100990.08
2019-02-17T12:22:45.477Z,100984.27
2019-02-17T12:25:13.929Z,100978.38
2019-02-17T12:27:42.684Z,100976.71
2019-02-17T12:30:11.977Z,100974.27
2019-02-17T12:32:40.331Z,100976.37
2019-02-17T12:35:09.665Z,100967.78
2019-02-17T12:37:37.978Z,100967.59
2019-02-17T12:40:09.610Z,100962.27
2019-02-17T12:42:37.918Z,100956.62
2019-02-17T12:45:10.815Z,100954.83
2019-02-17T12:47:39.230Z,100952.30
2019-02-17T12:50:10.652Z,100951.03
2019-02-17T12:52:46.755Z,100955.34
2019-02-17T12:55:10.282Z,100943.42
2019-02-17T12:57:39.197Z,100937.25
2019-02-17T13:00:12.542Z,100941.98
2019-02-17T13:02:40.910Z,100939.45
2019-02-17T13:05:10.270Z,100929.86
2019-02-17T13:07:38.664Z,100931.14
2019-02-17T13:10:09.068Z,100923.18
2019-02-17T13:12:37.414Z,100917.16
2019-02-17T13:15:08.336Z,100910.23
2019-02-17T13:17:36.685Z,100909.91
2019-02-17T13:20:09.123Z,100906.81
2019-02-17T13:22:37.452Z,100904.75
2019-02-17T13:25:09.112Z,100901.09
2019-02-17T13:27:37.525Z,100894.44
2019-02-17T13:30:11.646Z,100892.38
2019-02-17T13:32:40.026Z,100894.19
2019-02-17T13:35:09.146Z,100886.80
2019-02-17T13:37:37.731Z,100887.92
2019-02-17T13:40:09.677Z,100877.33
2019-02-17T13:42:38.096Z,100882.11
2019-02-17T13:45:12.181Z,100878.03
2019-02-17T13:47:40.629Z,100876.17
2019-02-17T13:50:12.227Z,100873.16
2019-02-17T13:52:40.593Z,100872.67
2019-02-17T13:55:10.365Z,100864.39
2019-02-17T13:57:38.780Z,100865.91
2019-02-17T14:00:11.953Z,100859.59
2019-02-17T14:02:40.309Z,100855.63
2019-02-17T14:05:09.581Z,100855.88
2019-02-17T14:07:37.905Z,100846.45
2019-02-17T14:10:09.852Z,100849.94
2019-02-17T14:12:38.352Z,100849.44
2019-02-17T14:15:12.795Z,100840.97
2019-02-17T14:17:41.134Z,100844.45
2019-02-17T14:20:10.549Z,100841.75
2019-02-17T14:22:39.133Z,100838.32
2019-02-17T14:25:10.998Z,100838.75
2019-02-17T14:27:39.915Z,100836.72
2019-02-17T14:30:12.783Z,100830.38
2019-02-17T14:32:41.240Z,100827.86
2019-02-17T14:35:10.227Z,100830.39
2019-02-17T14:37:38.633Z,100827.17
2019-02-17T14:40:09.329Z,100828.84
2019-02-17T14:42:37.705Z,100820.75
2019-02-17T14:45:10.632Z,100826.98
2019-02-17T14:47:38.994Z,100820.94
2019-02-17T14:50:08.870Z,100814.41
2019-02-17T14:52:37.226Z,100818.25
2019-02-17T14:55:08.283Z,100814.38
2019-02-17T14:57:36.633Z,100817.69
2019-02-17T15:00:10.748Z,100808.81
2019-02-17T15:02:39.140Z,100810.27
2019-02-17T15:05:09.418Z,100806.84
2019-02-17T15:07:37.850Z,100798.64
2019-02-17T15:10:10.094Z,100794.23
2019-02-17T15:12:38.453Z,100793.44
2019-02-17T15:15:10.033Z,100799.05
2019-02-17T15:17:38.406Z,100796.67
2019-02-17T15:20:09.487Z,100792.67
2019-02-17T15:22:37.829Z,100794.71
2019-02-17T15:25:09.174Z,100791.44
2019-02-17T15:27:37.503Z,100792.63
2019-02-17T15:30:10.333Z,100786.66
2019-02-17T15:32:38.684Z,100785.50
2019-02-17T15:35:07.450Z,100783.19
2019-02-17T15:37:35.767Z,100782.11
2019-02-17T15:40:07.958Z,100785.15
2019-02-17T15:42:36.292Z,100782.73
2019-02-17T15:45:08.647Z,100777.58
2019-02-17T15:47:37.007Z,100776.79
2019-02-17T15:50:08.499Z,100771.55
2019-02-17T15:52:36.830Z,100765.53
2019-02-17T15:55:08.554Z,100771.00
2019-02-17T15:57:36.973Z,100772.23
2019-02-17T16:00:08.471Z,100762.30
2019-02-17T16:02:36.804Z,100759.66
2019-02-17T16:05:06.749Z,100758.82
2019-02-17T16:07:35.061Z,100756.23
2019-02-17T16:10:08.542Z,100751.11
2019-02-17T16:12:37.105Z,100754.02
2019-02-17T16:15:10.780Z,100750.23
2019-02-17T16:17:39.135Z,100755.64
2019-02-17T16:20:10.850Z,100756.95
2019-02-17T16:22:39.945Z,100751.58
2019-02-17T16:25:09.775Z,100754.41
2019-02-17T16:27:38.199Z,100754.73
2019-02-17T16:30:10.453Z,100750.13
2019-02-17T16:32:38.776Z,100756.98
2019-02-17T16:35:07.770Z,100759.56
2019-02-17T16:37:36.145Z,100753.03
2019-02-17T16:40:06.997Z,100751.12
2019-02-17T16:42:35.358Z,100751.36
2019-02-17T16:45:05.509Z,100752.56
2019-02-17T16:47:33.859Z,100751.10
2019-02-17T16:50:02.228Z,100758.16
2019-02-17T16:52:30.663Z,100758.72
2019-02-17T16:54:59.063Z,100764.41
2019-02-17T16:57:27.389Z,100758.16
2019-02-17T16:59:55.794Z,100764.53
2019-02-17T17:02:24.335Z,100769.78
2019-02-17T17:04:52.715Z,100769.46
2019-02-17T17:07:21.062Z,100769.98
2019-02-17T17:09:49.426Z,100770.59
2019-02-17T17:12:17.746Z,100775.77
2019-02-17T17:14:46.120Z,100774.90
2019-02-17T17:17:14.694Z,100777.16
2019-02-17T17:19:43.298Z,100777.06
2019-02-17T17:22:11.721Z,100780.22
2019-02-17T17:24:40.346Z,100776.52
2019-02-17T17:27:09.330Z,100780.20
2019-02-17T17:29:37.813Z,100781.88
2019-02-17T17:32:06.275Z,100780.58
2019-02-17T17:34:34.754Z,100780.51
2019-02-17T17:37:03.177Z,100785.55
2019-02-17T17:39:31.665Z,100785.28
2019-02-17T17:42:00.137Z,100785.28
2019-02-17T17:44:28.765Z,100785.50
2019-02-17T17:46:57.735Z,100785.52
2019-02-17T17:49:26.275Z,100785.06
2019-02-17T17:51:54.637Z,100784.78
2019-02-17T17:54:25.697Z,100782.42
2019-02-17T17:56:54.360Z,100781.60
2019-02-17T17:59:22.930Z,100780.11
2019-02-17T18:01:51.293Z,100789.50
2019-02-17T18:04:19.673Z,100780.14
2019-02-17T18:06:48.118Z,100783.33
2019-02-17T18:09:16.458Z,100787.72
2019-02-17T18:11:44.815Z,100797.91
2019-02-17T18:14:13.898Z,100794.40
2019-02-17T18:16:42.233Z,100799.56
2019-02-17T18:19:10.967Z,100799.37
2019-02-17T18:21:39.339Z,100799.87
2019-02-17T18:24:07.645Z,100795.17
2019-02-17T18:26:35.997Z,100805.36
2019-02-17T18:29:04.535Z,100801.36
2019-02-17T18:31:32.903Z,100805.84
2019-02-17T18:34:01.249Z,100814.02
2019-02-17T18:36:29.606Z,100807.51
2019-02-17T18:38:57.953Z,100810.65
2019-02-17T18:41:26.310Z,100813.99
2019-02-17T18:43:54.661Z,100812.62
2019-02-17T18:46:23.010Z,100813.13
2019-02-17T18:48:51.381Z,100818.30
2019-02-17T18:51:19.725Z,100819.84
2019-02-17T18:53:48.145Z,100823.64
2019-02-17T18:56:42.445Z,100815.89
2019-02-17T18:59:11.137Z,100818.89
2019-02-17T19:01:39.520Z,100829.12
2019-02-17T19:04:08.042Z,100827.64
2019-02-17T19:06:36.402Z,100827.77
2019-02-17T19:09:06.242Z,100823.84
2019-02-17T19:11:34.588Z,100828.36
2019-02-17T19:14:02.909Z,100826.80
2019-02-17T19:16:31.328Z,100823.95
2019-02-17T19:18:59.707Z,100830.57
2019-02-17T19:21:28.121Z,100833.13
2019-02-17T19:23:56.482Z,100827.55
2019-02-17T19:26:24.959Z,100826.17
2019-02-17T19:28:53.353Z,100823.05
2019-02-17T19:31:21.696Z,100823.84
2019-02-17T19:33:50.126Z,100820.65
2019-02-17T19:36:18.514Z,100819.08
2019-02-17T19:38:47.204Z,100816.36
2019-02-17T19:41:15.531Z,100818.67
2019-02-17T19:43:43.912Z,100821.77
2019-02-17T19:46:12.383Z,100815.70
2019-02-17T19:48:40.730Z,100826.04
2019-02-17T19:51:09.170Z,100816.87
2019-02-17T19:53:37.529Z,100816.84
2019-02-17T19:56:07.517Z,100818.96
2019-02-17T19:58:36.114Z,100811.01
2019-02-17T20:01:04.481Z,100815.25
2019-02-17T20:03:36.138Z,100820.70
2019-02-17T20:06:12.431Z,100820.27
2019-02-17T20:08:41.386Z,100826.30
2019-02-17T20:11:11.385Z,100826.20
2019-02-17T20:13:39.905Z,100831.26
2019-02-17T20:16:08.245Z,100820.54
2019-02-17T20:18:37.001Z,100829.55
2019-02-17T20:21:05.343Z,100821.84
2019-02-17T20:23:33.886Z,100830.47
2019-02-17T20:26:02.741Z,100833.79
2019-02-17T20:28:40.831Z,100831.76
2019-02-17T20:31:01.413Z,100827.88
2019-02-17T20:33:29.731Z,100833.60
2019-02-17T20:36:02.650Z,100831.43
2019-02-17T20:38:28.696Z,100838.53
2019-02-17T20:40:57.079Z,100841.24
2019-02-17T20:43:25.407Z,100842.67
2019-02-17T20:45:53.769Z,100836.43
2019-02-17T20:48:22.196Z,100842.28
2019-02-17T20:50:50.567Z,100842.15
2019-02-17T20:53:19.003Z,100832.01
2019-02-17T20:55:47.403Z,100824.83
2019-02-17T20:58:15.779Z,100827.56
2019-02-17T21:00:44.482Z,100825.61
2019-02-17T21:03:13.351Z,100821.36
2019-02-17T21:05:41.753Z,100817.30
2019-02-17T21:08:11.518Z,100825.04
2019-02-17T21:10:39.888Z,100819.92
2019-02-17T21:13:10.708Z,100821.45
2019-02-17T21:15:40.683Z,100819.36
2019-02-17T21:18:09.584Z,100825.72
2019-02-17T21:20:39.365Z,100826.77
2019-02-17T21:23:07.773Z,100827.70
2019-02-17T21:25:36.122Z,100827.47
2019-02-17T21:28:04.472Z,100829.56
2019-02-17T21:30:32.845Z,100828.65
2019-02-17T21:33:01.219Z,100832.11
2019-02-17T21:35:29.553Z,100828.11
2019-02-17T21:37:57.995Z,100825.98
2019-02-17T21:40:26.396Z,100822.80
2019-02-17T21:42:54.761Z,100826.67
2019-02-17T21:45:23.167Z,100820.51
2019-02-17T21:47:51.518Z,100818.98
2019-02-17T21:50:19.866Z,100824.66
2019-02-17T21:52:48.249Z,100822.03
2019-02-17T21:55:16.654Z,100817.16
2019-02-17T21:57:45.085Z,100823.47
2019-02-17T22:00:18.203Z,100824.31
2019-02-17T22:02:46.624Z,100820.99
2019-02-17T22:05:15.546Z,100827.50
2019-02-17T22:07:44.021Z,100828.38
2019-02-17T22:10:14.460Z,100829.14
2019-02-17T22:12:42.768Z,100823.20
2019-02-17T22:15:15.696Z,100821.20
2019-02-17T22:17:44.073Z,100820.51
2019-02-17T22:20:13.606Z,100823.70
2019-02-17T22:22:42.042Z,100824.31
2019-02-17T22:25:11.004Z,100819.14
2019-02-17T22:27:39.371Z,100818.19
2019-02-17T22:30:10.988Z,100814.62
2019-02-17T22:32:39.371Z,100814.50
2019-02-17T22:35:07.730Z,100816.63
2019-02-17T22:37:36.170Z,100817.78
2019-02-17T22:40:06.775Z,100814.58
2019-02-17T22:42:35.094Z,100815.59
2019-02-17T22:45:05.245Z,100822.93
2019-02-17T22:47:33.607Z,100809.06
2019-02-17T22:50:02.031Z,100812.44
2019-02-17T22:52:30.726Z,100814.70
2019-02-17T22:54:59.094Z,100811.23
2019-02-17T22:57:27.402Z,100807.31
2019-02-17T22:59:55.785Z,100811.80
2019-02-17T23:02:24.210Z,100809.58
2019-02-17T23:04:52.600Z,100817.42
2019-02-17T23:07:20.923Z,100815.22
2019-02-17T23:09:49.284Z,100811.23
2019-02-17T23:12:17.668Z,100814.09
2019-02-17T23:14:46.023Z,100807.64
2019-02-17T23:17:14.409Z,100810.24
2019-02-17T23:19:42.770Z,100811.07
2019-02-17T23:22:11.466Z,100812.25
2019-02-17T23:24:39.888Z,100810.70
2019-02-17T23:27:08.215Z,100813.45
2019-02-17T23:29:36.582Z,100812.38
2019-02-17T23:32:04.902Z,100807.80
2019-02-17T23:34:33.247Z,100811.00
2019-02-17T23:37:04.092Z,100816.45
2019-02-17T23:39:31.977Z,100821.12
2019-02-17T23:42:00.337Z,100818.05
2019-02-17T23:44:28.679Z,100817.95
2019-02-17T23:46:57.023Z,100820.33
2019-02-17T23:49:25.358Z,100822.94
2019-02-17T23:51:53.694Z,100825.45
2019-02-17T23:54:22.030Z,100821.66
2019-02-17T23:56:50.402Z,100823.20
2019-02-17T23:59:18.753Z,100824.00
